Brampton-Caledon Airport

CNC3 · 安大略, 加拿大

罗盘
风向 的 风向 270° Brampton-Caledon Airport 8/26
风向 到 风: 27 kt, 阵阵 32 kt, 6 beaufort

26 kt

9 kt
改变
0 2.000 4.000 6.000 8.000 10.000
OVC 5.500 ft
METAR CYTZ 011000Z AUTO 27027G32KT 9SM -SN OVC055 M01/M06 A3005 RMK SLP182

METAR Brampton-Caledon Airport - CNC3

Brampton-Caledon Airport是,加拿大中的中型机场。 该机场有2条跑道: 8/26 和 15/33. 该领域的国际民航组织标志是CNC3.

这份报告是针对2022年12月1日 05:00, 当地时间在比利·畢曉普多倫多市機場进行的。

机场观察

风向为270°,速度为27 kt。 已测得32 kt的阵风。

可见度为9 mi。

有乌云密布在5.500 ft的高度。 破损或更高的上限为5.500 ft。

当前天气为光 雪。 温度为-1 °C,阵风为-12 °C。 露点为-6 °C,相对湿度为69%。 海平面上的气压为30,05 inHg (QNH)。

白天

今天,太阳从07:33升起,在16:43降落。 这适用于Brampton-Caledon Airport,世界夏令时可能有所不同。 当地时间与世界标准时间之间的时差为-5 小时。 当前,没有夏令时有效。

公司介绍

我们没有关于这个机场的公司信息。

体会

到Vliegles.nl去找飞行课程,跳伞和其他飞行体验。 浏览页面,了解Brampton-Caledon Airport附近所有可用的活动。 你也可以使用搜索功能来寻找你所在地附近的特定飞行课程、跳伞或其他飞行体验。

跑道

Id 标题 侧风 逆风 侧风 %
8/26 071°-251° 9-10 kt 26-30 kt 33 %
15/33 141°-321° 21-25 kt 17-20 kt 78 %

逆风成分最大的方向会被突出显示,并用于横风计算。 这并不一定意味着这个方向在使用。

乌云

5.500 ft OVC 乌云密布

温度 & 天气

天气 光 雪
温度 -1 °C
露点 -6 °C
相对湿度 69%
风寒 -12 °C
Kp-index 3 (0-9)

评论

SLP182海平面压力为30,07 inHg (30,07 inHg)

白天

日出
07:31 (1:25)
中午
12:06
日落
16:42

小工具

你想在你的网站上有一个关于Brampton-Caledon Airport的当前航空天气(METAR)的小部件吗?

显示HTML代码

我们和第三方通过cookies跟踪您在我们网站上的互联网行为。如果你继续,我们认为你同意我们的饼干政策